Philadelphia, Pennsylvania
Traffic Map
Current Weather Conditions
Philadelphia, Pennsylvania
Broken Clouds
Broken Clouds
21°
Feels Like: 21°
Wind Chill: 21° Ceiling: 16000
Heat Index: 21° Visibility: 10mi
Dew Point: 19° Wind: 7mph
Humidity: 87% Direction: 340° (NNW)
Pressure: 29.87in Gusts: 0mph
Raw Report DataKPHL 290854Z 34006KT 10SM SCT110 BKN160 BKN220 21/19 A2987 RMK AO2 SLP112 60000 T02110189 57001 $
Traffic Incident Summary
Active as of:
Severity:
Category:
InformationThere was an issue retrieving the traffic information for this location. Please try a different location or try again shortly.
Advertisements
Track Severe Weather on mobile